sensor_id;sensor_type;location;lat;lon;timestamp;temperature;humidity
1678;DHT22;6034;46.864;15.216;2023-04-15T06:18:47;6.60;99.90
1678;DHT22;6034;46.864;15.216;2023-04-15T06:21:14;6.60;99.90
1678;DHT22;6034;46.864;15.216;2023-04-15T06:23:55;6.60;99.90
1678;DHT22;6034;46.864;15.216;2023-04-15T06:26:22;6.60;99.90
1678;DHT22;6034;46.864;15.216;2023-04-15T06:28:49;6.60;99.90
1678;DHT22;6034;46.864;15.216;2023-04-15T06:31:16;6.70;99.90
1678;DHT22;6034;46.864;15.216;2023-04-15T06:33:45;6.60;99.90
1678;DHT22;6034;46.864;15.216;2023-04-15T06:36:12;6.70;99.90
1678;DHT22;6034;46.864;15.216;2023-04-15T06:38:39;6.70;99.90
1678;DHT22;6034;46.864;15.216;2023-04-15T06:41:06;6.70;99.90
1678;DHT22;6034;46.864;15.216;2023-04-15T06:43:33;6.70;99.90
1678;DHT22;6034;46.864;15.216;2023-04-15T06:46:00;6.80;99.90
1678;DHT22;6034;46.864;15.216;2023-04-15T06:48:28;6.70;99.90
1678;DHT22;6034;46.864;15.216;2023-04-15T06:50:56;6.50;99.90
1678;DHT22;6034;46.864;15.216;2023-04-15T06:53:23;6.60;99.90
1678;DHT22;6034;46.864;15.216;2023-04-15T06:55:51;6.70;99.90
1678;DHT22;6034;46.864;15.216;2023-04-15T06:58:18;6.70;99.90
1678;DHT22;6034;46.864;15.216;2023-04-15T07:00:45;6.70;99.90
1678;DHT22;6034;46.864;15.216;2023-04-15T07:03:13;6.70;99.90
1678;DHT22;6034;46.864;15.216;2023-04-15T07:05:40;6.80;99.90
1678;DHT22;6034;46.864;15.216;2023-04-15T07:08:08;6.90;99.90
1678;DHT22;6034;46.864;15.216;2023-04-15T07:10:35;6.90;99.90
1678;DHT22;6034;46.864;15.216;2023-04-15T07:13:03;7.00;99.90
1678;DHT22;6034;46.864;15.216;2023-04-15T07:15:30;7.00;99.90
1678;DHT22;6034;46.864;15.216;2023-04-15T07:17:57;7.00;99.90
1678;DHT22;6034;46.864;15.216;2023-04-15T07:20:24;7.00;99.90
1678;DHT22;6034;46.864;15.216;2023-04-15T07:22:51;7.00;99.90
1678;DHT22;6034;46.864;15.216;2023-04-15T07:25:19;7.00;99.90
1678;DHT22;6034;46.864;15.216;2023-04-15T07:27:46;7.00;99.90
1678;DHT22;6034;46.864;15.216;2023-04-15T07:30:13;7.00;99.90
1678;DHT22;6034;46.864;15.216;2023-04-15T07:32:40;7.00;99.90
1678;DHT22;6034;46.864;15.216;2023-04-15T07:35:08;7.10;99.90
1678;DHT22;6034;46.864;15.216;2023-04-15T07:37:36;7.00;99.90
1678;DHT22;6034;46.864;15.216;2023-04-15T07:40:03;7.00;99.90
1678;DHT22;6034;46.864;15.216;2023-04-15T07:42:34;7.10;99.90
1678;DHT22;6034;46.864;15.216;2023-04-15T07:45:01;6.90;99.90
1678;DHT22;6034;46.864;15.216;2023-04-15T07:47:28;6.90;99.90
1678;DHT22;6034;46.864;15.216;2023-04-15T07:49:55;7.10;99.90
1678;DHT22;6034;46.864;15.216;2023-04-15T07:52:22;7.20;99.90
1678;DHT22;6034;46.864;15.216;2023-04-15T07:54:49;7.20;99.90
1678;DHT22;6034;46.864;15.216;2023-04-15T07:57:16;7.20;99.90
1678;DHT22;6034;46.864;15.216;2023-04-15T07:59:44;7.30;99.90
1678;DHT22;6034;46.864;15.216;2023-04-15T08:02:11;7.30;99.90
1678;DHT22;6034;46.864;15.216;2023-04-15T08:04:38;7.30;99.90
1678;DHT22;6034;46.864;15.216;2023-04-15T08:07:05;7.40;99.90
1678;DHT22;6034;46.864;15.216;2023-04-15T08:09:32;7.40;99.90
1678;DHT22;6034;46.864;15.216;2023-04-15T08:12:00;7.40;99.90
1678;DHT22;6034;46.864;15.216;2023-04-15T08:14:27;7.50;99.90
1678;DHT22;6034;46.864;15.216;2023-04-15T08:16:56;7.50;99.90
1678;DHT22;6034;46.864;15.216;2023-04-15T08:19:23;7.50;99.90
1678;DHT22;6034;46.864;15.216;2023-04-15T08:21:50;7.10;99.90
1678;DHT22;6034;46.864;15.216;2023-04-15T08:24:17;7.30;99.90
1678;DHT22;6034;46.864;15.216;2023-04-15T08:26:44;7.30;99.90
1678;DHT22;6034;46.864;15.216;2023-04-15T08:29:11;7.40;99.90
1678;DHT22;6034;46.864;15.216;2023-04-15T08:31:38;7.50;99.90
1678;DHT22;6034;46.864;15.216;2023-04-15T08:34:06;7.50;99.90
1678;DHT22;6034;46.864;15.216;2023-04-15T08:36:34;7.40;99.90
1678;DHT22;6034;46.864;15.216;2023-04-15T08:39:01;7.40;99.90
1678;DHT22;6034;46.864;15.216;2023-04-15T08:41:30;7.50;99.90
1678;DHT22;6034;46.864;15.216;2023-04-15T08:44:01;7.60;99.90
1678;DHT22;6034;46.864;15.216;2023-04-15T08:46:29;7.70;99.90
1678;DHT22;6034;46.864;15.216;2023-04-15T08:48:58;7.70;99.90
1678;DHT22;6034;46.864;15.216;2023-04-15T08:51:27;7.70;99.90
1678;DHT22;6034;46.864;15.216;2023-04-15T08:53:54;7.80;99.90
1678;DHT22;6034;46.864;15.216;2023-04-15T08:56:22;7.80;99.90
1678;DHT22;6034;46.864;15.216;2023-04-15T08:58:49;7.80;99.90
1678;DHT22;6034;46.864;15.216;2023-04-15T09:01:17;7.80;99.90
1678;DHT22;6034;46.864;15.216;2023-04-15T09:03:44;7.70;99.90
1678;DHT22;6034;46.864;15.216;2023-04-15T09:06:11;7.60;99.90
1678;DHT22;6034;46.864;15.216;2023-04-15T09:08:40;7.70;99.90
1678;DHT22;6034;46.864;15.216;2023-04-15T09:11:07;7.60;99.90
1678;DHT22;6034;46.864;15.216;2023-04-15T09:13:34;7.70;99.90
1678;DHT22;6034;46.864;15.216;2023-04-15T09:16:01;7.70;99.90
1678;DHT22;6034;46.864;15.216;2023-04-15T09:18:29;7.60;99.90
1678;DHT22;6034;46.864;15.216;2023-04-15T09:21:03;7.70;99.90
1678;DHT22;6034;46.864;15.216;2023-04-15T09:23:30;7.70;99.90
1678;DHT22;6034;46.864;15.216;2023-04-15T09:26:00;7.60;99.90
1678;DHT22;6034;46.864;15.216;2023-04-15T09:28:27;7.50;99.90
1678;DHT22;6034;46.864;15.216;2023-04-15T09:30:55;7.70;99.90
1678;DHT22;6034;46.864;15.216;2023-04-15T09:33:22;7.80;99.90
1678;DHT22;6034;46.864;15.216;2023-04-15T09:35:55;7.80;99.90
1678;DHT22;6034;46.864;15.216;2023-04-15T09:38:22;7.70;99.90
1678;DHT22;6034;46.864;15.216;2023-04-15T09:40:49;7.50;99.90
1678;DHT22;6034;46.864;15.216;2023-04-15T09:43:18;7.80;99.90
1678;DHT22;6034;46.864;15.216;2023-04-15T09:45:48;7.70;99.90
1678;DHT22;6034;46.864;15.216;2023-04-15T09:48:17;7.80;99.90
1678;DHT22;6034;46.864;15.216;2023-04-15T09:50:45;7.90;99.90
1678;DHT22;6034;46.864;15.216;2023-04-15T09:53:17;7.80;99.90
1678;DHT22;6034;46.864;15.216;2023-04-15T09:55:45;7.70;99.90
1678;DHT22;6034;46.864;15.216;2023-04-15T09:58:20;7.80;99.90
1678;DHT22;6034;46.864;15.216;2023-04-15T10:00:48;8.00;99.90
